Time;durP1;ratioP1;P1;durP2;ratioP2;P2;SDS_P1;SDS_P2;PMS_P1;PMS_P2;Temp;Humidity;BMP_temperature;BMP_pressure;BME280_temperature;BME280_humidity;BME280_pressure;Samples;Min_cycle;Max_cycle;Signal;HPM_P1;HPM_P2
2023/06/26 00:01:04;;;;;;;7.10;5.50;;;21.40;66.10;;;;;;5013903;28;20045;-65
2023/06/26 00:03:32;;;;;;;8.57;5.70;;;21.40;66.10;;;;;;5016353;28;20155;-63
2023/06/26 00:06:00;;;;;;;7.00;5.18;;;21.40;66.20;;;;;;5014793;28;20497;-64
2023/06/26 00:08:27;;;;;;;7.43;5.53;;;21.30;66.10;;;;;;5018007;28;20130;-63
2023/06/26 00:10:56;;;;;;;7.93;5.95;;;21.20;66.20;;;;;;5016204;28;20049;-64
2023/06/26 00:13:24;;;;;;;7.38;5.57;;;21.10;66.40;;;;;;5007924;28;20053;-66
2023/06/26 00:15:51;;;;;;;7.43;5.90;;;21.10;66.60;;;;;;5010116;28;20046;-66
2023/06/26 00:18:18;;;;;;;8.70;5.68;;;21.00;66.70;;;;;;5015024;28;20089;-67
2023/06/26 00:20:45;;;;;;;6.90;5.80;;;21.00;66.80;;;;;;5016389;28;20382;-66
2023/06/26 00:23:16;;;;;;;6.75;5.22;;;21.00;66.90;;;;;;5011005;28;20508;-63
2023/06/26 00:25:43;;;;;;;8.00;6.75;;;21.00;67.10;;;;;;5013448;28;20057;-64
2023/06/26 00:28:11;;;;;;;8.48;6.18;;;21.00;67.20;;;;;;5010895;28;20041;-63
2023/06/26 00:30:38;;;;;;;9.15;6.82;;;20.90;67.20;;;;;;5013651;28;20106;-63
2023/06/26 00:33:05;;;;;;;8.38;6.55;;;20.90;67.40;;;;;;4995003;28;20132;-63
2023/06/26 00:35:32;;;;;;;7.95;6.50;;;20.90;67.50;;;;;;5007946;28;20117;-68
2023/06/26 00:37:59;;;;;;;8.38;6.13;;;20.90;67.70;;;;;;4992974;28;20049;-64
2023/06/26 00:40:26;;;;;;;8.77;6.70;;;20.90;67.80;;;;;;5011025;28;20056;-65
2023/06/26 00:42:53;;;;;;;9.15;6.85;;;20.80;67.70;;;;;;5002263;28;20077;-64
2023/06/26 00:45:23;;;;;;;10.30;6.80;;;20.80;67.60;;;;;;5016325;28;20132;-65
2023/06/26 00:47:50;;;;;;;8.15;6.18;;;20.70;67.40;;;;;;4995784;28;20092;-65
2023/06/26 00:50:17;;;;;;;8.43;6.68;;;20.60;67.70;;;;;;5013245;28;20045;-64
2023/06/26 00:52:44;;;;;;;9.35;6.68;;;20.70;67.50;;;;;;5017810;28;20104;-66
2023/06/26 00:55:12;;;;;;;8.05;6.97;;;20.60;67.60;;;;;;4999518;28;20843;-65
2023/06/26 00:57:38;;;;;;;7.82;6.72;;;20.70;67.50;;;;;;5000461;28;20057;-66
2023/06/26 01:00:07;;;;;;;7.70;5.82;;;20.70;67.60;;;;;;5019422;28;20056;-68
2023/06/26 01:02:35;;;;;;;8.23;6.70;;;20.60;67.90;;;;;;4992429;28;20077;-67
2023/06/26 01:05:06;;;;;;;8.07;6.38;;;20.50;68.30;;;;;;5017215;28;20065;-65
2023/06/26 01:07:37;;;;;;;7.40;5.65;;;20.40;68.60;;;;;;5019272;28;21040;-66
2023/06/26 01:10:05;;;;;;;8.93;5.80;;;20.40;68.70;;;;;;4998289;28;20058;-66
2023/06/26 01:12:33;;;;;;;7.88;5.85;;;20.30;68.80;;;;;;4989466;28;20046;-66
2023/06/26 01:15:01;;;;;;;7.55;5.75;;;20.30;68.90;;;;;;4999693;28;20057;-66
2023/06/26 01:17:32;;;;;;;9.23;6.10;;;20.30;69.00;;;;;;4982981;28;20038;-64
2023/06/26 01:20:01;;;;;;;9.45;6.00;;;20.20;69.10;;;;;;4999125;28;20098;-65
2023/06/26 01:22:44;;;;;;;7.05;5.88;;;20.20;69.20;;;;;;4999264;28;20072;-65
2023/06/26 01:25:18;;;;;;;8.02;6.18;;;20.10;69.30;;;;;;4998454;28;20046;-65
2023/06/26 01:27:47;;;;;;;8.30;6.47;;;20.10;69.50;;;;;;5017588;28;20046;-65
2023/06/26 01:30:16;;;;;;;8.95;6.78;;;20.10;69.60;;;;;;5016989;28;20045;-65
2023/06/26 01:32:44;;;;;;;7.90;6.35;;;20.00;69.70;;;;;;5016245;28;20042;-65
2023/06/26 01:35:13;;;;;;;8.95;6.65;;;20.00;69.80;;;;;;5019784;28;20045;-65
2023/06/26 01:37:39;;;;;;;8.52;6.35;;;20.00;69.80;;;;;;5017730;28;20058;-66
2023/06/26 01:40:08;;;;;;;8.30;6.38;;;19.90;69.90;;;;;;5019025;28;20057;-64
2023/06/26 01:42:35;;;;;;;8.93;7.10;;;19.90;70.00;;;;;;5001215;28;20038;-66
2023/06/26 01:45:08;;;;;;;8.07;6.38;;;19.80;70.10;;;;;;5017742;28;20034;-66
2023/06/26 01:47:39;;;;;;;7.38;6.32;;;19.80;70.00;;;;;;5019317;28;20065;-66
2023/06/26 01:50:10;;;;;;;8.45;6.45;;;19.80;70.10;;;;;;5016031;28;20137;-65
2023/06/26 01:52:42;;;;;;;7.82;6.72;;;19.80;70.20;;;;;;5016842;28;20080;-66
2023/06/26 01:55:18;;;;;;;8.05;6.47;;;19.80;70.30;;;;;;5010371;28;20053;-66
2023/06/26 01:57:47;;;;;;;8.15;6.63;;;19.80;70.40;;;;;;5001303;28;20128;-65
2023/06/26 02:00:18;;;;;;;9.27;6.82;;;19.80;70.30;;;;;;5018891;28;20049;-65
2023/06/26 02:02:46;;;;;;;7.72;6.20;;;19.70;70.40;;;;;;5013822;28;20084;-67
2023/06/26 02:05:14;;;;;;;8.90;6.18;;;19.70;70.40;;;;;;5016589;28;20124;-66
2023/06/26 02:07:42;;;;;;;8.63;6.70;;;19.60;70.60;;;;;;5013237;28;20141;-65
2023/06/26 02:10:10;;;;;;;8.57;7.15;;;19.60;70.80;;;;;;5015537;28;20045;-64
2023/06/26 02:12:37;;;;;;;8.73;7.20;;;19.60;70.80;;;;;;5016723;28;20046;-66
2023/06/26 02:15:05;;;;;;;9.18;6.80;;;19.50;70.70;;;;;;4999218;28;20053;-65
2023/06/26 02:17:35;;;;;;;9.57;7.00;;;19.60;70.60;;;;;;4984659;28;20049;-65
2023/06/26 02:20:03;;;;;;;9.63;7.88;;;19.60;70.50;;;;;;5015859;28;20046;-64
2023/06/26 02:22:30;;;;;;;10.27;7.18;;;19.50;70.50;;;;;;4995187;28;20125;-66
2023/06/26 02:24:57;;;;;;;8.88;7.40;;;19.50;70.60;;;;;;5013328;28;20046;-65
2023/06/26 02:27:24;;;;;;;9.70;6.85;;;19.50;70.60;;;;;;5000078;28;20056;-65
2023/06/26 02:29:53;;;;;;;7.82;6.53;;;19.40;70.80;;;;;;4988460;28;20057;-65
2023/06/26 02:32:20;;;;;;;8.93;7.10;;;19.40;71.00;;;;;;5015191;28;20045;-65
2023/06/26 02:34:52;;;;;;;8.00;6.72;;;19.40;71.00;;;;;;5015481;28;20049;-65
2023/06/26 02:37:19;;;;;;;9.75;6.80;;;19.30;71.20;;;;;;5015463;28;20400;-64
2023/06/26 02:39:46;;;;;;;10.93;7.38;;;19.30;71.30;;;;;;5010978;28;20592;-66
2023/06/26 02:42:13;;;;;;;9.63;6.90;;;19.30;71.40;;;;;;5014660;28;20052;-65
2023/06/26 02:44:40;;;;;;;8.20;6.45;;;19.30;71.40;;;;;;5016910;28;20067;-66
2023/06/26 02:47:08;;;;;;;8.77;6.35;;;19.20;71.50;;;;;;5018750;28;20042;-65
2023/06/26 02:49:38;;;;;;;8.07;6.60;;;19.20;71.60;;;;;;4998824;28;20121;-66
2023/06/26 02:52:07;;;;;;;8.88;6.60;;;19.20;71.50;;;;;;5000242;28;20076;-65
2023/06/26 02:54:34;;;;;;;7.53;6.40;;;19.10;71.60;;;;;;4996007;28;20042;-65
2023/06/26 02:57:05;;;;;;;8.45;6.88;;;19.10;71.80;;;;;;4998369;28;20057;-66
2023/06/26 02:59:34;;;;;;;7.93;6.30;;;19.10;71.90;;;;;;4999553;28;20049;-65
2023/06/26 03:02:01;;;;;;;10.68;7.80;;;19.10;71.90;;;;;;4993215;28;20073;-65
2023/06/26 03:04:36;;;;;;;9.20;6.85;;;19.10;71.90;;;;;;4997853;28;20061;-67
2023/06/26 03:07:06;;;;;;;9.50;7.57;;;19.00;71.80;;;;;;4966719;28;20054;-65
2023/06/26 03:09:34;;;;;;;9.63;7.38;;;19.00;72.00;;;;;;4978726;28;20105;-64
2023/06/26 03:12:01;;;;;;;8.45;6.55;;;19.00;72.10;;;;;;4977006;28;20043;-65
2023/06/26 03:14:29;;;;;;;10.48;7.30;;;19.00;72.10;;;;;;4962145;28;20055;-63
2023/06/26 03:16:58;;;;;;;9.38;7.57;;;18.90;72.20;;;;;;4968363;28;20411;-64
2023/06/26 03:19:26;;;;;;;9.82;7.28;;;18.90;72.40;;;;;;4979601;28;20057;-65
2023/06/26 03:22:15;;;;;;;8.95;7.28;;;18.90;72.50;;;;;;5003691;28;20083;-65
2023/06/26 03:24:42;;;;;;;9.27;7.45;;;18.90;72.50;;;;;;4984415;28;20053;-64
2023/06/26 03:27:09;;;;;;;8.88;6.65;;;18.80;72.50;;;;;;4998014;28;20056;-65
2023/06/26 03:29:37;;;;;;;9.98;7.35;;;18.70;72.70;;;;;;4990204;28;20053;-66
2023/06/26 03:32:04;;;;;;;8.25;7.07;;;18.80;72.80;;;;;;4997659;28;20124;-65
2023/06/26 03:34:31;;;;;;;8.15;7.00;;;18.70;72.80;;;;;;4981117;28;20058;-65
2023/06/26 03:36:58;;;;;;;11.65;7.25;;;18.70;72.80;;;;;;4978465;28;20050;-65
2023/06/26 03:39:26;;;;;;;10.38;7.22;;;18.70;72.90;;;;;;4994237;28;20129;-65
2023/06/26 03:41:54;;;;;;;9.82;7.20;;;18.70;72.90;;;;;;4980155;28;20128;-64
2023/06/26 03:44:23;;;;;;;9.65;7.45;;;18.70;72.90;;;;;;4978753;28;20146;-66
2023/06/26 03:46:50;;;;;;;10.45;7.20;;;18.60;72.90;;;;;;4980891;28;20525;-66
2023/06/26 03:49:18;;;;;;;11.02;7.28;;;18.60;73.00;;;;;;4978697;28;20490;-65
2023/06/26 03:51:45;;;;;;;10.60;7.38;;;18.70;72.90;;;;;;4981721;28;20046;-64
2023/06/26 03:54:12;;;;;;;8.68;6.90;;;18.60;72.80;;;;;;4994355;28;20054;-65
2023/06/26 03:56:40;;;;;;;8.70;7.10;;;18.60;72.90;;;;;;5002843;28;20065;-64
2023/06/26 03:59:07;;;;;;;9.63;7.30;;;18.60;73.00;;;;;;5014842;28;20054;-64
2023/06/26 04:01:34;;;;;;;9.73;7.35;;;18.60;73.00;;;;;;4998091;28;20469;-65
2023/06/26 04:04:01;;;;;;;9.35;6.97;;;18.70;73.00;;;;;;4993737;28;20054;-67
2023/06/26 04:06:28;;;;;;;8.90;6.38;;;18.60;73.20;;;;;;4963185;28;20125;-66
2023/06/26 04:08:55;;;;;;;9.90;7.10;;;18.60;73.20;;;;;;4967105;28;20051;-65
2023/06/26 04:11:22;;;;;;;8.73;7.05;;;18.60;73.20;;;;;;4964055;28;20061;-65
2023/06/26 04:13:50;;;;;;;8.63;6.88;;;18.60;73.20;;;;;;4978784;28;20049;-65
2023/06/26 04:16:17;;;;;;;8.13;6.22;;;18.70;73.30;;;;;;4985393;28;20378;-66
2023/06/26 04:18:44;;;;;;;8.88;6.70;;;18.70;73.30;;;;;;5011910;28;20179;-64
2023/06/26 04:21:13;;;;;;;8.57;6.53;;;18.60;73.30;;;;;;5015149;28;20467;-66
2023/06/26 04:23:40;;;;;;;9.40;6.85;;;18.70;73.30;;;;;;5015160;28;20062;-66
2023/06/26 04:26:08;;;;;;;10.45;7.20;;;18.70;73.20;;;;;;5007168;28;20042;-66
2023/06/26 04:28:36;;;;;;;8.75;7.07;;;18.70;73.30;;;;;;5014001;28;20042;-65
2023/06/26 04:31:04;;;;;;;8.40;6.38;;;18.80;73.20;;;;;;5014243;28;20041;-65
2023/06/26 04:33:31;;;;;;;8.63;6.85;;;18.70;73.20;;;;;;5016572;28;20053;-65
2023/06/26 04:36:02;;;;;;;9.55;7.05;;;18.80;73.20;;;;;;5014057;28;20511;-64
2023/06/26 04:38:29;;;;;;;9.18;7.55;;;18.80;73.20;;;;;;5014093;28;20527;-66
2023/06/26 04:40:56;;;;;;;9.27;6.72;;;18.80;73.20;;;;;;5015591;28;20052;-66
2023/06/26 04:43:23;;;;;;;9.75;6.93;;;18.80;73.10;;;;;;5009968;28;20068;-64
2023/06/26 04:45:50;;;;;;;9.23;7.07;;;18.80;73.00;;;;;;5011460;28;20067;-66
2023/06/26 04:48:18;;;;;;;7.97;6.38;;;18.80;73.10;;;;;;5015095;28;20054;-65
2023/06/26 04:50:53;;;;;;;8.98;6.93;;;18.90;73.00;;;;;;5013241;28;20551;-66
2023/06/26 04:53:21;;;;;;;10.07;7.28;;;18.90;72.90;;;;;;5012050;28;20049;-65
2023/06/26 04:55:48;;;;;;;8.18;6.40;;;18.90;73.10;;;;;;5015255;28;20181;-65
2023/06/26 04:58:30;;;;;;;9.70;6.95;;;18.90;72.90;;;;;;4990379;28;20050;-64
2023/06/26 05:00:58;;;;;;;8.63;6.43;;;18.90;72.90;;;;;;4998408;28;20050;-67
2023/06/26 05:03:26;;;;;;;9.00;6.65;;;19.00;72.80;;;;;;5017031;28;20104;-65
2023/06/26 05:05:53;;;;;;;9.65;6.75;;;19.00;72.90;;;;;;5014690;28;20054;-66
2023/06/26 05:08:23;;;;;;;9.80;7.70;;;19.00;72.60;;;;;;5009468;28;20045;-65
2023/06/26 05:10:50;;;;;;;8.70;6.63;;;19.10;72.20;;;;;;5014995;28;20041;-66
2023/06/26 05:13:19;;;;;;;8.13;6.53;;;19.10;72.10;;;;;;5015040;28;20068;-65
2023/06/26 05:15:47;;;;;;;10.75;7.72;;;19.10;72.10;;;;;;5013884;28;20057;-63
2023/06/26 05:18:14;;;;;;;8.88;7.25;;;19.10;72.00;;;;;;5013542;28;20132;-64
2023/06/26 05:20:43;;;;;;;9.70;7.13;;;19.20;72.20;;;;;;5015133;28;20072;-65
2023/06/26 05:23:12;;;;;;;9.07;6.43;;;19.30;72.10;;;;;;5014288;28;20045;-64
2023/06/26 05:25:41;;;;;;;9.68;6.88;;;19.20;72.20;;;;;;5015353;28;20511;-65
2023/06/26 05:28:10;;;;;;;8.00;6.80;;;19.30;72.20;;;;;;5015813;28;20052;-66
2023/06/26 05:30:37;;;;;;;9.73;7.53;;;19.30;72.20;;;;;;5013513;28;20545;-66
2023/06/26 05:33:05;;;;;;;8.73;6.88;;;19.30;72.10;;;;;;5014292;28;20603;-65
2023/06/26 05:35:33;;;;;;;8.32;6.43;;;19.30;72.20;;;;;;5015848;28;20049;-64
2023/06/26 05:38:03;;;;;;;8.45;6.38;;;19.40;72.20;;;;;;5016150;28;20045;-65
2023/06/26 05:40:30;;;;;;;9.05;6.72;;;19.40;72.20;;;;;;5017758;28;20042;-66
2023/06/26 05:42:57;;;;;;;8.73;6.68;;;19.40;72.10;;;;;;5016654;28;20049;-63
2023/06/26 05:45:24;;;;;;;8.05;6.47;;;19.50;72.00;;;;;;5000602;28;20516;-64
2023/06/26 05:47:51;;;;;;;8.80;6.60;;;19.50;72.20;;;;;;5017663;28;20057;-65
2023/06/26 05:50:20;;;;;;;8.45;5.93;;;19.50;72.10;;;;;;5016178;28;20054;-65
2023/06/26 05:52:48;;;;;;;9.77;7.28;;;19.50;72.20;;;;;;5017859;28;20112;-66
2023/06/26 05:55:16;;;;;;;8.18;6.82;;;19.60;71.90;;;;;;5017684;28;20045;-65
2023/06/26 05:57:46;;;;;;;9.60;6.70;;;19.50;72.30;;;;;;5015776;28;20045;-64
2023/06/26 06:00:14;;;;;;;8.95;6.65;;;19.60;72.10;;;;;;5018327;28;20049;-65
2023/06/26 06:02:43;;;;;;;8.95;6.95;;;19.60;72.10;;;;;;5019496;28;20050;-65
2023/06/26 06:05:11;;;;;;;9.00;7.25;;;19.60;72.10;;;;;;5019058;28;20048;-65
2023/06/26 06:07:38;;;;;;;8.60;7.05;;;19.70;72.00;;;;;;5021248;28;20065;-64
2023/06/26 06:10:08;;;;;;;7.78;6.35;;;19.70;71.40;;;;;;5016176;28;20057;-65
2023/06/26 06:12:37;;;;;;;8.90;6.15;;;19.80;72.00;;;;;;5017430;28;20124;-66
2023/06/26 06:15:04;;;;;;;8.35;6.82;;;19.80;71.30;;;;;;5017067;28;20053;-68
2023/06/26 06:17:31;;;;;;;8.73;6.65;;;19.80;71.40;;;;;;4999518;28;20112;-67
2023/06/26 06:19:57;;;;;;;7.82;6.45;;;19.90;71.10;;;;;;4999460;28;20053;-66
2023/06/26 06:22:24;;;;;;;9.98;7.70;;;19.90;71.70;;;;;;5000262;28;20046;-66
2023/06/26 06:24:52;;;;;;;9.43;7.28;;;20.00;71.40;;;;;;5014325;28;20053;-66
2023/06/26 06:27:19;;;;;;;10.25;8.13;;;20.10;71.30;;;;;;5018914;28;20050;-67
2023/06/26 06:29:47;;;;;;;11.05;8.23;;;20.10;71.10;;;;;;5015131;28;20099;-67
2023/06/26 06:32:14;;;;;;;10.07;8.35;;;20.20;70.90;;;;;;5018764;28;20056;-67
2023/06/26 06:34:40;;;;;;;10.13;8.40;;;20.30;70.80;;;;;;5016585;28;20058;-66
2023/06/26 06:37:07;;;;;;;11.13;9.02;;;20.50;70.70;;;;;;5018462;28;20046;-66
2023/06/26 06:39:34;;;;;;;10.25;9.15;;;20.60;70.30;;;;;;5015054;28;20068;-67
2023/06/26 06:42:01;;;;;;;11.77;9.50;;;20.80;69.80;;;;;;5018207;28;20049;-67
2023/06/26 06:44:30;;;;;;;12.20;10.20;;;20.90;69.50;;;;;;5015655;28;20050;-67
2023/06/26 06:46:58;;;;;;;12.37;10.57;;;21.10;69.30;;;;;;5014234;28;20046;-69
2023/06/26 06:49:25;;;;;;;11.50;9.40;;;21.20;68.70;;;;;;5009301;28;20413;-67
2023/06/26 06:51:52;;;;;;;11.65;9.18;;;21.30;68.60;;;;;;5015693;28;20049;-67
2023/06/26 06:54:19;;;;;;;10.25;9.05;;;21.50;68.20;;;;;;5016312;28;20038;-67
2023/06/26 06:56:46;;;;;;;11.55;9.73;;;21.70;68.00;;;;;;5013647;28;20448;-68
2023/06/26 06:59:13;;;;;;;13.02;10.20;;;21.80;67.60;;;;;;5010452;28;20409;-66
2023/06/26 07:01:40;;;;;;;12.85;10.73;;;22.00;67.40;;;;;;5014055;28;20062;-66
2023/06/26 07:04:09;;;;;;;12.48;10.95;;;22.20;66.90;;;;;;5017431;28;20066;-68
2023/06/26 07:06:36;;;;;;;11.55;8.70;;;22.30;66.40;;;;;;5017176;28;20042;-67
2023/06/26 07:09:03;;;;;;;11.40;9.05;;;22.60;66.00;;;;;;5018690;28;20515;-67
2023/06/26 07:11:30;;;;;;;11.20;8.68;;;22.70;65.80;;;;;;5017063;28;20526;-68
2023/06/26 07:13:57;;;;;;;9.93;7.88;;;22.80;65.50;;;;;;5015645;28;20060;-67
2023/06/26 07:16:24;;;;;;;9.05;7.88;;;23.00;65.20;;;;;;5017258;28;20564;-67
2023/06/26 07:18:51;;;;;;;9.15;7.97;;;23.10;65.00;;;;;;5015704;28;20053;-68
2023/06/26 07:21:20;;;;;;;10.50;7.30;;;23.30;64.80;;;;;;5016336;28;20128;-68
2023/06/26 07:23:47;;;;;;;8.70;7.43;;;23.60;64.40;;;;;;5015041;28;20516;-67
2023/06/26 07:26:15;;;;;;;9.05;7.05;;;23.80;64.10;;;;;;5018016;28;20072;-68
2023/06/26 07:28:42;;;;;;;8.88;7.25;;;23.90;63.60;;;;;;5015752;28;20124;-67
2023/06/26 07:31:09;;;;;;;8.38;7.38;;;24.10;63.40;;;;;;5016148;28;20056;-67
2023/06/26 07:33:36;;;;;;;7.68;6.55;;;24.30;63.40;;;;;;5015661;28;20050;-67
2023/06/26 07:36:03;;;;;;;10.02;7.03;;;24.40;62.60;;;;;;5017009;28;20060;-69
2023/06/26 07:38:32;;;;;;;7.53;6.63;;;24.60;62.20;;;;;;5018120;28;20049;-67
2023/06/26 07:40:59;;;;;;;8.48;7.03;;;24.80;61.80;;;;;;5016613;28;20056;-67
2023/06/26 07:43:26;;;;;;;8.63;7.47;;;25.00;61.00;;;;;;5017794;28;20548;-68
2023/06/26 07:45:54;;;;;;;8.43;7.38;;;25.10;60.20;;;;;;5016089;28;20049;-67
2023/06/26 07:48:21;;;;;;;8.60;7.28;;;25.20;59.30;;;;;;5013196;28;20099;-67
2023/06/26 07:50:48;;;;;;;8.55;7.40;;;25.40;58.60;;;;;;5017181;28;20503;-68
2023/06/26 07:53:15;;;;;;;8.13;7.30;;;25.60;58.10;;;;;;5015594;28;20060;-67
2023/06/26 07:55:44;;;;;;;9.15;6.55;;;25.60;57.80;;;;;;5014548;28;20042;-67
2023/06/26 07:58:11;;;;;;;;;;;25.80;57.30;;;;;;5016600;28;20038;-68
2023/06/26 08:00:38;;;;;;;7.72;6.10;;;25.90;57.40;;;;;;5015410;28;20012;-62
2023/06/26 08:03:05;;;;;;;8.27;7.20;;;26.10;56.30;;;;;;5005572;28;20045;-62
2023/06/26 08:05:32;;;;;;;9.43;7.20;;;26.20;56.20;;;;;;5016040;28;20052;-62
2023/06/26 08:07:59;;;;;;;8.75;6.97;;;26.30;55.70;;;;;;5016180;28;20053;-62
2023/06/26 08:10:27;;;;;;;8.30;7.03;;;26.50;54.80;;;;;;5018614;28;20051;-63
2023/06/26 08:12:55;;;;;;;8.30;7.22;;;26.60;54.10;;;;;;5015753;28;20056;-63
2023/06/26 08:15:22;;;;;;;7.72;6.78;;;26.80;53.50;;;;;;5010126;28;20052;-63
2023/06/26 08:17:50;;;;;;;7.75;6.78;;;26.70;53.10;;;;;;5015623;28;20052;-63
2023/06/26 08:20:19;;;;;;;7.88;6.65;;;26.90;52.50;;;;;;5015489;28;20095;-61
2023/06/26 08:22:47;;;;;;;7.53;6.63;;;27.00;52.60;;;;;;5011192;28;20412;-63
2023/06/26 08:25:14;;;;;;;7.63;6.82;;;27.10;52.20;;;;;;5012696;28;20073;-63
2023/06/26 08:27:41;;;;;;;7.85;6.78;;;27.30;52.20;;;;;;5015515;28;20054;-62
2023/06/26 08:30:10;;;;;;;7.90;6.65;;;27.40;51.60;;;;;;5016606;28;20061;-62
2023/06/26 08:32:37;;;;;;;;;;;27.50;51.00;;;;;;5018584;28;20041;-63
2023/06/26 08:35:05;;;;;;;8.13;6.97;;;27.60;50.90;;;;;;5004473;28;19930;-61
2023/06/26 08:37:32;;;;;;;9.45;7.72;;;27.70;50.90;;;;;;5017504;28;20045;-62
2023/06/26 08:39:59;;;;;;;9.18;8.15;;;27.80;50.10;;;;;;5013414;28;20486;-62
2023/06/26 08:42:26;;;;;;;10.52;9.10;;;27.90;49.60;;;;;;5014738;28;20481;-63
2023/06/26 08:44:53;;;;;;;11.20;10.02;;;28.00;49.40;;;;;;5016766;28;20042;-62
2023/06/26 08:47:23;;;;;;;10.93;9.73;;;28.10;49.00;;;;;;5002821;28;20057;-61
2023/06/26 08:50:01;;;;;;;10.90;9.30;;;28.20;48.10;;;;;;5013237;28;20045;-61
2023/06/26 08:52:31;;;;;;;10.10;8.48;;;28.20;47.50;;;;;;5004432;28;20045;-62
2023/06/26 08:54:59;;;;;;;9.93;7.90;;;28.30;46.80;;;;;;5015086;28;20071;-64
2023/06/26 08:57:28;;;;;;;8.85;7.55;;;28.30;46.30;;;;;;5016382;28;20041;-62
2023/06/26 08:59:55;;;;;;;8.75;7.85;;;28.40;46.20;;;;;;5015569;28;20038;-60
2023/06/26 09:02:24;;;;;;;10.75;9.65;;;28.60;46.70;;;;;;5009357;28;20061;-60
2023/06/26 09:04:52;;;;;;;11.50;10.30;;;28.60;46.10;;;;;;5012619;28;20045;-63
2023/06/26 09:07:18;;;;;;;13.07;11.73;;;28.80;46.00;;;;;;5014611;28;20473;-61
2023/06/26 09:09:45;;;;;;;15.10;13.50;;;28.90;45.80;;;;;;5013876;28;20057;-63
2023/06/26 09:12:14;;;;;;;16.33;14.60;;;28.90;45.30;;;;;;5012424;28;20046;-62
2023/06/26 09:14:41;;;;;;;15.95;14.35;;;29.00;45.50;;;;;;5014997;28;20092;-62
2023/06/26 09:17:08;;;;;;;17.15;15.35;;;29.10;44.90;;;;;;5014341;28;20060;-62
2023/06/26 09:19:39;;;;;;;16.67;14.98;;;29.10;45.00;;;;;;4994756;28;20046;-62
2023/06/26 09:22:11;;;;;;;13.40;11.93;;;29.30;44.70;;;;;;5004745;28;20457;-62
2023/06/26 09:24:38;;;;;;;11.85;10.43;;;29.30;44.40;;;;;;5001310;28;20046;-63
2023/06/26 09:27:06;;;;;;;11.07;9.95;;;29.30;44.40;;;;;;4998647;28;20413;-63
2023/06/26 09:29:34;;;;;;;9.70;8.70;;;29.50;44.20;;;;;;4997546;28;20038;-61
2023/06/26 09:32:01;;;;;;;9.27;8.27;;;29.60;44.40;;;;;;4997995;28;20063;-63
2023/06/26 09:34:31;;;;;;;8.88;7.97;;;29.60;44.50;;;;;;4982508;28;20047;-62
2023/06/26 09:37:02;;;;;;;9.82;8.40;;;29.80;44.70;;;;;;4982662;28;20050;-63
2023/06/26 09:39:31;;;;;;;8.77;7.93;;;29.80;44.70;;;;;;4982796;28;20130;-63
2023/06/26 09:41:59;;;;;;;8.60;7.70;;;29.80;44.30;;;;;;4983068;28;20046;-63
2023/06/26 09:44:26;;;;;;;8.23;7.43;;;29.70;43.70;;;;;;4982936;28;20039;-61
2023/06/26 09:46:55;;;;;;;9.77;7.63;;;29.60;43.90;;;;;;4980679;28;20054;-62
2023/06/26 09:49:24;;;;;;;8.65;7.70;;;29.60;44.40;;;;;;4988901;28;20050;-62
2023/06/26 09:51:51;;;;;;;7.95;7.10;;;29.50;44.00;;;;;;5019189;28;20064;-63
2023/06/26 09:54:23;;;;;;;9.70;7.70;;;29.70;44.10;;;;;;5016873;28;20140;-64
2023/06/26 09:56:50;;;;;;;9.98;7.32;;;29.90;43.80;;;;;;5018514;28;20064;-62
2023/06/26 09:59:17;;;;;;;8.63;7.72;;;29.90;44.10;;;;;;5019032;28;20064;-62
2023/06/26 10:01:47;;;;;;;8.60;7.57;;;29.90;43.60;;;;;;5011702;28;20057;-62
2023/06/26 10:04:14;;;;;;;9.45;7.80;;;29.70;43.70;;;;;;5016606;28;20042;-62
2023/06/26 10:06:46;;;;;;;9.20;7.90;;;29.60;43.90;;;;;;5016465;28;20141;-63
2023/06/26 10:09:15;;;;;;;8.57;7.72;;;29.60;44.10;;;;;;5015564;28;20095;-63
2023/06/26 10:11:48;;;;;;;8.68;7.78;;;29.60;44.10;;;;;;5018283;28;20046;-62
2023/06/26 10:14:17;;;;;;;8.27;7.35;;;29.70;44.00;;;;;;5018001;28;20448;-62
2023/06/26 10:16:45;;;;;;;9.40;7.97;;;29.70;43.80;;;;;;4999441;28;20559;-62
2023/06/26 10:19:14;;;;;;;9.98;7.93;;;29.60;44.20;;;;;;5005440;28;20050;-62
2023/06/26 10:21:42;;;;;;;10.68;8.48;;;29.60;44.40;;;;;;5016136;28;20057;-63
2023/06/26 10:24:10;;;;;;;10.13;8.70;;;29.50;44.60;;;;;;5016190;28;20477;-61
2023/06/26 10:26:45;;;;;;;9.52;8.52;;;29.60;44.60;;;;;;5019062;28;20126;-63
2023/06/26 10:29:24;;;;;;;10.57;8.40;;;29.50;44.60;;;;;;5016913;28;20045;-62
2023/06/26 10:31:56;;;;;;;9.68;8.13;;;29.60;44.70;;;;;;5017366;28;20401;-61
2023/06/26 10:34:24;;;;;;;11.75;8.75;;;29.80;44.40;;;;;;5013475;28;20041;-62
2023/06/26 10:37:00;;;;;;;10.15;8.10;;;30.10;44.10;;;;;;5013666;28;20053;-64
2023/06/26 10:39:27;;;;;;;10.88;8.05;;;30.40;44.40;;;;;;5014382;28;20046;-62
2023/06/26 10:42:09;;;;;;;9.73;7.60;;;30.60;43.50;;;;;;5018136;28;20065;-62
2023/06/26 10:44:43;;;;;;;10.50;8.70;;;30.60;42.40;;;;;;5015221;28;20092;-62
2023/06/26 10:47:11;;;;;;;10.68;8.85;;;30.80;43.00;;;;;;5017146;28;20108;-62
2023/06/26 10:49:39;;;;;;;11.95;10.43;;;30.80;43.50;;;;;;5010192;28;20624;-63
2023/06/26 10:52:07;;;;;;;11.00;9.90;;;30.90;43.60;;;;;;5016863;28;20041;-63
2023/06/26 10:54:34;;;;;;;10.77;9.68;;;30.90;43.50;;;;;;5014156;28;20045;-63
2023/06/26 10:57:03;;;;;;;9.38;8.40;;;31.00;43.30;;;;;;5013704;28;20069;-61
2023/06/26 10:59:31;;;;;;;10.95;9.40;;;31.10;43.10;;;;;;5019565;28;20195;-61
2023/06/26 11:02:06;;;;;;;10.40;8.75;;;31.30;43.20;;;;;;5013190;28;20050;-61
2023/06/26 11:04:41;;;;;;;11.50;9.13;;;31.40;42.10;;;;;;4999842;28;20061;-60
2023/06/26 11:07:19;;;;;;;12.93;11.02;;;31.30;42.80;;;;;;4996889;28;20501;-62
2023/06/26 11:09:56;;;;;;;13.88;12.35;;;31.10;42.80;;;;;;4995798;28;20081;-61
2023/06/26 11:12:38;;;;;;;13.27;11.18;;;31.10;42.80;;;;;;4997113;28;20054;-63
2023/06/26 11:15:08;;;;;;;14.70;13.07;;;31.10;42.50;;;;;;4997501;28;20051;-62
2023/06/26 11:17:44;;;;;;;14.52;13.02;;;31.30;42.70;;;;;;4994976;28;20046;-61
2023/06/26 11:20:13;;;;;;;15.07;13.57;;;31.30;42.90;;;;;;5002145;28;20046;-62
2023/06/26 11:22:41;;;;;;;16.05;14.35;;;31.30;42.30;;;;;;5017843;28;20050;-64
2023/06/26 11:25:09;;;;;;;20.98;18.75;;;31.50;42.70;;;;;;4999062;28;20056;-62
2023/06/26 11:27:41;;;;;;;15.02;13.43;;;31.30;42.50;;;;;;5015647;28;20042;-64
2023/06/26 11:30:10;;;;;;;11.90;10.68;;;31.10;42.60;;;;;;4992919;28;20060;-62
2023/06/26 11:32:37;;;;;;;10.93;8.75;;;31.30;42.90;;;;;;5012832;28;20041;-62
2023/06/26 11:35:05;;;;;;;7.80;6.90;;;31.50;42.80;;;;;;5016646;28;20061;-62
2023/06/26 11:37:33;;;;;;;7.47;6.50;;;31.40;42.90;;;;;;5016262;28;20058;-61
2023/06/26 11:40:00;;;;;;;9.70;7.38;;;31.30;42.90;;;;;;5000821;28;20061;-62
2023/06/26 11:42:27;;;;;;;10.35;8.20;;;31.20;43.20;;;;;;5017110;28;20480;-62
2023/06/26 11:44:55;;;;;;;10.15;8.25;;;31.00;43.90;;;;;;5014400;28;20049;-60
2023/06/26 11:47:23;;;;;;;9.02;8.13;;;30.90;44.30;;;;;;5012400;28;20564;-61
2023/06/26 11:49:51;;;;;;;8.75;7.75;;;30.90;44.90;;;;;;5013581;28;20061;-62
2023/06/26 11:52:17;;;;;;;7.85;6.93;;;31.00;44.20;;;;;;5016363;28;20046;-62
2023/06/26 11:54:45;;;;;;;7.82;6.72;;;30.90;44.40;;;;;;5015665;28;20073;-61
2023/06/26 11:57:15;;;;;;;7.67;6.67;;;30.90;43.80;;;;;;5016060;28;20096;-62
2023/06/26 11:59:43;;;;;;;7.07;6.20;;;30.80;43.90;;;;;;5017008;28;20050;-62
2023/06/26 12:02:14;;;;;;;7.90;6.00;;;30.80;43.90;;;;;;5016621;28;20100;-62
2023/06/26 12:04:43;;;;;;;7.53;6.15;;;31.00;44.00;;;;;;5015564;28;20046;-62
2023/06/26 12:07:11;;;;;;;7.82;6.32;;;31.00;44.00;;;;;;5016441;28;20041;-61
2023/06/26 12:09:43;;;;;;;7.20;6.45;;;31.00;43.70;;;;;;5015337;28;20488;-63
2023/06/26 12:12:11;;;;;;;7.20;6.28;;;30.80;43.60;;;;;;5015957;28;20076;-62
2023/06/26 12:14:40;;;;;;;8.18;6.90;;;30.60;44.10;;;;;;5016719;28;20053;-60
2023/06/26 12:17:12;;;;;;;9.93;7.60;;;30.60;44.20;;;;;;5015112;28;20042;-61
2023/06/26 12:19:40;;;;;;;9.27;6.72;;;30.70;44.60;;;;;;5016412;28;20060;-62
2023/06/26 12:22:08;;;;;;;7.47;6.67;;;31.00;44.00;;;;;;5017150;28;20049;-61
2023/06/26 12:24:38;;;;;;;7.30;6.55;;;31.00;43.60;;;;;;5013883;28;21023;-61
2023/06/26 12:27:09;;;;;;;7.40;6.15;;;31.00;44.30;;;;;;5015141;28;20059;-61
2023/06/26 12:29:37;;;;;;;7.05;6.35;;;30.90;44.50;;;;;;5014306;28;20042;-64
2023/06/26 12:32:05;;;;;;;7.20;6.50;;;30.80;44.40;;;;;;5016290;28;20054;-62
2023/06/26 12:34:35;;;;;;;7.38;6.45;;;30.70;43.90;;;;;;5015238;28;20149;-64
2023/06/26 12:37:03;;;;;;;7.22;6.45;;;30.60;44.00;;;;;;4978480;28;20046;-62
2023/06/26 12:39:51;;;;;;;7.63;6.35;;;30.60;44.40;;;;;;4986121;28;20080;-62
2023/06/26 12:42:20;;;;;;;7.53;6.70;;;30.50;44.10;;;;;;5016698;28;20096;-62
2023/06/26 12:44:47;;;;;;;7.47;6.57;;;30.40;44.30;;;;;;5015781;28;20153;-61
2023/06/26 12:47:15;;;;;;;9.18;6.68;;;30.50;44.20;;;;;;5014109;28;20108;-62
2023/06/26 12:49:45;;;;;;;8.48;6.78;;;30.60;43.80;;;;;;5003127;28;20056;-63